createdAt,value
2022-09-05T00:02:07.067Z,4.43
2022-09-05T00:05:21.942Z,5.10
2022-09-05T00:08:13.302Z,5.37
2022-09-05T00:11:39.504Z,4.90
2022-09-05T00:15:15.042Z,5.00
2022-09-05T00:21:40.147Z,5.10
2022-09-05T00:24:32.275Z,5.10
2022-09-05T00:25:32.008Z,5.10
2022-09-05T00:28:26.375Z,5.20
2022-09-05T00:31:54.778Z,4.80
2022-09-05T00:34:47.812Z,4.90
2022-09-05T00:37:41.788Z,4.70
2022-09-05T00:40:37.652Z,5.15
2022-09-05T00:43:36.934Z,5.33
2022-09-05T00:46:27.045Z,4.80
2022-09-05T00:49:29.815Z,4.93
2022-09-05T00:52:28.729Z,4.80
2022-09-05T00:55:39.145Z,5.20
2022-09-05T00:58:52.667Z,5.23
2022-09-05T01:01:53.449Z,5.10
2022-09-05T01:04:44.165Z,4.63
2022-09-05T01:07:48.583Z,5.30
2022-09-05T01:10:41.804Z,4.87
2022-09-05T01:13:43.128Z,5.32
2022-09-05T01:16:37.686Z,5.30
2022-09-05T01:19:44.602Z,4.70
2022-09-05T01:22:39.105Z,5.07
2022-09-05T01:25:44.128Z,5.10
2022-09-05T01:29:16.145Z,5.03
2022-09-05T01:32:19.878Z,4.70
2022-09-05T01:35:36.452Z,4.70
2022-09-05T01:38:30.228Z,5.03
2022-09-05T01:41:37.743Z,5.17
2022-09-05T01:44:38.311Z,4.73
2022-09-05T01:47:58.040Z,4.97
2022-09-05T01:51:29.110Z,5.07
2022-09-05T01:54:24.465Z,4.40
2022-09-05T01:57:43.040Z,4.53
2022-09-05T02:01:25.379Z,4.80
2022-09-05T02:04:28.511Z,4.80
2022-09-05T02:07:30.848Z,4.70
2022-09-05T02:10:51.232Z,4.97
2022-09-05T02:13:36.737Z,5.07
2022-09-05T02:16:55.311Z,5.13
2022-09-05T02:19:50.833Z,4.93
2022-09-05T02:22:46.529Z,4.87
2022-09-05T02:26:02.440Z,4.80
2022-09-05T02:29:03.296Z,4.43
2022-09-05T02:31:53.894Z,5.00
2022-09-05T02:34:58.987Z,4.40
2022-09-05T02:41:44.270Z,4.47
2022-09-05T02:45:09.111Z,5.30
2022-09-05T02:45:19.430Z,4.78
2022-09-05T02:48:18.281Z,4.70
2022-09-05T02:57:29.247Z,4.60
2022-09-05T02:58:06.291Z,4.50
2022-09-05T02:58:08.922Z,4.83
2022-09-05T03:01:09.817Z,5.00
2022-09-05T03:04:27.423Z,4.70
2022-09-05T03:07:45.926Z,4.80
2022-09-05T03:11:12.130Z,4.90
2022-09-05T03:14:19.358Z,4.67
2022-09-05T03:17:19.985Z,4.60
2022-09-05T03:21:08.938Z,5.47
2022-09-05T03:24:32.512Z,5.60
2022-09-05T03:27:17.792Z,6.03
2022-09-05T03:30:15.496Z,5.97
2022-09-05T03:33:22.641Z,5.77
2022-09-05T03:36:32.515Z,6.23
2022-09-05T03:39:33.500Z,6.17
2022-09-05T03:42:53.578Z,5.47
2022-09-05T03:45:42.865Z,5.97
2022-09-05T03:48:36.802Z,5.63
2022-09-05T03:57:20.205Z,5.50
2022-09-05T03:57:27.107Z,5.70
2022-09-05T03:58:18.402Z,5.43
2022-09-05T04:04:45.584Z,5.60
2022-09-05T04:08:07.035Z,5.47
2022-09-05T04:08:15.656Z,5.83
2022-09-05T04:11:09.113Z,5.63
2022-09-05T04:14:03.455Z,5.70
2022-09-05T04:16:52.799Z,5.27
2022-09-05T04:19:49.895Z,5.67
2022-09-05T04:23:17.272Z,5.10
2022-09-05T04:26:12.495Z,5.57
2022-09-05T04:29:05.388Z,5.67
2022-09-05T04:32:15.445Z,5.75
2022-09-05T04:35:19.178Z,5.65
2022-09-05T04:38:15.460Z,5.67
2022-09-05T04:41:09.934Z,5.23
2022-09-05T04:44:16.164Z,5.67
2022-09-05T04:47:11.673Z,6.00
2022-09-05T04:50:12.072Z,5.70
2022-09-05T04:53:20.022Z,5.73
2022-09-05T04:56:15.445Z,5.60
2022-09-05T05:04:30.850Z,5.40
2022-09-05T05:06:17.932Z,5.77
2022-09-05T05:06:19.737Z,6.00
2022-09-05T05:09:02.723Z,6.10
2022-09-05T05:18:11.988Z,5.70
2022-09-05T05:18:38.675Z,5.80
2022-09-05T05:21:34.405Z,5.67
2022-09-05T05:24:35.429Z,5.40
2022-09-05T05:27:28.382Z,4.97
2022-09-05T05:30:25.833Z,5.50
2022-09-05T05:33:31.522Z,5.67
2022-09-05T05:36:33.861Z,5.20
2022-09-05T05:39:26.245Z,5.63
2022-09-05T05:42:23.395Z,5.53
2022-09-05T05:45:30.878Z,5.60
2022-09-05T05:48:19.541Z,5.87
2022-09-05T05:51:34.506Z,5.67
2022-09-05T05:54:28.348Z,5.00
2022-09-05T05:57:42.997Z,5.17
2022-09-05T06:01:02.359Z,5.37
2022-09-05T06:04:05.937Z,5.70
2022-09-05T06:07:09.781Z,5.50
2022-09-05T06:14:51.435Z,5.67
2022-09-05T06:14:55.063Z,5.13
2022-09-05T06:17:20.741Z,5.47
2022-09-05T06:22:04.076Z,4.90
2022-09-05T06:24:16.908Z,5.10
2022-09-05T06:27:25.735Z,5.70
2022-09-05T06:30:19.410Z,4.97
2022-09-05T06:33:16.748Z,5.72
2022-09-05T06:36:14.175Z,5.10
2022-09-05T06:39:35.834Z,5.23
2022-09-05T06:43:01.397Z,5.33
2022-09-05T06:45:58.921Z,5.70
2022-09-05T06:49:33.376Z,5.57
2022-09-05T06:52:29.720Z,5.47
2022-09-05T06:55:40.152Z,5.50
2022-09-05T06:58:53.739Z,5.53
2022-09-05T07:02:00.449Z,5.03
2022-09-05T07:05:37.908Z,5.37
2022-09-05T07:08:35.847Z,6.00
2022-09-05T07:11:45.512Z,5.88
2022-09-05T07:14:36.841Z,5.73
2022-09-05T07:18:08.626Z,5.53
2022-09-05T07:21:18.138Z,5.20
2022-09-05T07:24:14.872Z,6.40
2022-09-05T07:28:26.369Z,6.40
2022-09-05T07:31:33.640Z,5.97
2022-09-05T07:34:28.542Z,6.10
2022-09-05T07:37:22.138Z,5.93
2022-09-05T07:40:25.845Z,6.38
2022-09-05T07:43:28.747Z,5.80
2022-09-05T07:46:23.346Z,5.87
2022-09-05T07:49:16.946Z,5.93
2022-09-05T07:56:56.644Z,6.15
2022-09-05T07:56:59.650Z,6.77
2022-09-05T07:58:44.045Z,6.10
2022-09-05T08:01:30.036Z,6.53
2022-09-05T08:04:32.287Z,6.63
2022-09-05T08:07:50.059Z,6.13
2022-09-05T08:11:23.566Z,6.03
2022-09-05T08:14:35.455Z,5.70
2022-09-05T08:17:29.930Z,6.27
2022-09-05T08:20:49.633Z,6.00
2022-09-05T08:23:46.331Z,5.77
2022-09-05T08:26:39.397Z,6.37
2022-09-05T08:29:43.526Z,5.65
2022-09-05T08:32:41.526Z,6.10
2022-09-05T08:35:41.049Z,6.10
2022-09-05T08:38:28.767Z,6.43
2022-09-05T08:41:50.202Z,5.90
2022-09-05T08:46:41.611Z,6.27
2022-09-05T08:48:17.277Z,6.33
2022-09-05T08:51:11.114Z,6.30
2022-09-05T08:57:42.135Z,6.47
2022-09-05T09:00:32.604Z,6.30
2022-09-05T09:04:10.741Z,6.17
2022-09-05T09:07:50.943Z,6.77
2022-09-05T09:10:59.902Z,7.73
2022-09-05T09:14:04.278Z,7.40
2022-09-05T09:17:14.225Z,6.90
2022-09-05T09:20:21.194Z,7.33
2022-09-05T09:23:40.434Z,8.07
2022-09-05T09:26:35.991Z,7.90
2022-09-05T09:29:21.997Z,7.40
2022-09-05T09:32:13.674Z,8.00
2022-09-05T09:35:14.362Z,7.83
2022-09-05T09:38:26.352Z,7.50
2022-09-05T09:41:53.081Z,7.70
2022-09-05T09:45:22.945Z,7.17
2022-09-05T09:48:08.579Z,8.00
2022-09-05T09:51:38.446Z,7.73
2022-09-05T09:54:40.300Z,7.33
2022-09-05T09:57:25.588Z,7.67
2022-09-05T10:00:21.214Z,8.10
2022-09-05T10:09:28.761Z,7.63
2022-09-05T10:10:51.623Z,7.83
2022-09-05T10:10:54.450Z,8.03
2022-09-05T10:13:26.882Z,8.17
2022-09-05T10:16:31.327Z,7.87
2022-09-05T10:23:14.485Z,8.50
2022-09-05T10:26:27.790Z,8.33
2022-09-05T10:29:42.574Z,8.23
2022-09-05T10:35:09.738Z,7.80
2022-09-05T10:36:23.191Z,7.53
2022-09-05T10:39:27.131Z,8.30
2022-09-05T10:42:43.491Z,7.40
2022-09-05T10:45:57.491Z,7.93
2022-09-05T10:48:54.714Z,7.27
2022-09-05T10:52:18.708Z,6.73
2022-09-05T10:55:22.789Z,6.97
2022-09-05T10:58:22.132Z,6.88
2022-09-05T11:02:26.037Z,7.20
2022-09-05T11:08:07.985Z,6.23
2022-09-05T11:11:32.524Z,6.97
2022-09-05T11:14:35.276Z,6.20
2022-09-05T11:17:23.387Z,6.63
2022-09-05T11:20:45.533Z,5.97
2022-09-05T11:23:39.336Z,6.40
2022-09-05T11:26:52.931Z,6.10
2022-09-05T11:30:03.125Z,6.63
2022-09-05T11:37:32.108Z,6.23
2022-09-05T11:40:08.917Z,5.73
2022-09-05T11:40:31.149Z,6.13
2022-09-05T11:43:43.664Z,5.93
2022-09-05T11:46:44.282Z,5.80
2022-09-05T11:49:32.730Z,6.07
2022-09-05T11:52:55.602Z,5.70
2022-09-05T11:56:09.127Z,5.67
2022-09-05T11:59:32.998Z,6.03
2022-09-05T12:03:05.266Z,6.20
2022-09-05T12:06:11.378Z,5.90
2022-09-05T12:09:25.627Z,5.97
2022-09-05T12:12:40.923Z,5.33
2022-09-05T12:15:34.099Z,5.50
2022-09-05T12:18:39.836Z,5.53
2022-09-05T12:21:38.224Z,5.30
2022-09-05T12:25:25.210Z,5.03
2022-09-05T12:27:46.076Z,5.22
2022-09-05T12:30:36.397Z,5.20
2022-09-05T12:36:04.117Z,5.27
2022-09-05T12:39:52.069Z,5.73
2022-09-05T12:41:35.631Z,5.67
2022-09-05T12:44:38.219Z,5.23
2022-09-05T12:46:38.234Z,4.95
2022-09-05T12:49:37.100Z,5.80
2022-09-05T12:52:39.543Z,4.87
2022-09-05T12:55:33.800Z,5.53
2022-09-05T13:03:05.981Z,5.47
2022-09-05T13:05:02.168Z,5.00
2022-09-05T13:07:56.234Z,5.77
2022-09-05T13:14:27.659Z,5.40
2022-09-05T13:14:54.758Z,8.97
2022-09-05T13:17:06.260Z,11.98
2022-09-05T13:19:52.522Z,10.87
2022-09-05T13:22:48.572Z,9.87
2022-09-05T13:25:37.198Z,9.27
2022-09-05T13:28:27.694Z,9.13
2022-09-05T13:35:27.148Z,9.23
2022-09-05T13:38:10.025Z,9.30
2022-09-05T13:38:17.738Z,9.80
2022-09-05T13:41:00.176Z,7.87
2022-09-05T13:43:46.174Z,8.25
2022-09-05T13:46:40.850Z,8.27
2022-09-05T13:49:55.583Z,8.77
2022-09-05T13:52:55.326Z,8.20
2022-09-05T13:56:03.364Z,8.20
2022-09-05T13:58:57.226Z,8.93
2022-09-05T14:02:20.061Z,8.20
2022-09-05T14:05:48.919Z,9.27
2022-09-05T14:12:11.689Z,8.47
2022-09-05T14:15:10.477Z,8.53
2022-09-05T14:18:00.412Z,8.80
2022-09-05T14:21:17.051Z,8.23
2022-09-05T14:24:13.603Z,8.53
2022-09-05T14:27:00.450Z,8.60
2022-09-05T14:29:52.275Z,8.60
2022-09-05T14:37:49.873Z,8.40
2022-09-05T14:37:54.601Z,8.05
2022-09-05T14:39:38.538Z,8.90
2022-09-05T14:42:46.023Z,9.87
2022-09-05T14:45:40.575Z,9.57
2022-09-05T14:48:53.466Z,9.73
2022-09-05T14:51:43.285Z,11.13
2022-09-05T15:02:44.170Z,10.40
2022-09-05T15:02:52.810Z,11.60
2022-09-05T15:07:23.665Z,25.90
2022-09-05T15:12:14.647Z,33.60
2022-09-05T15:13:25.979Z,30.20
2022-09-05T15:16:14.858Z,27.77
2022-09-05T15:19:01.527Z,24.87
2022-09-05T15:21:47.231Z,27.63
2022-09-05T15:24:32.861Z,29.87
2022-09-05T15:27:19.048Z,27.53
2022-09-05T15:30:06.556Z,26.93
2022-09-05T15:33:15.696Z,25.13
2022-09-05T15:36:02.811Z,23.60
2022-09-05T15:38:56.036Z,22.87
2022-09-05T15:41:43.459Z,22.63
2022-09-05T15:44:32.303Z,14.40
2022-09-05T15:47:25.280Z,16.48
2022-09-05T15:50:21.376Z,18.63
2022-09-05T15:53:21.960Z,20.03
2022-09-05T15:56:10.335Z,18.13
2022-09-05T15:59:00.245Z,16.70
2022-09-05T16:01:59.616Z,14.87
2022-09-05T16:10:34.909Z,14.07
2022-09-05T16:10:38.382Z,12.73
2022-09-05T16:15:27.832Z,11.13
2022-09-05T16:23:29.887Z,9.67
2022-09-05T16:23:30.072Z,10.70
2022-09-05T16:24:59.287Z,9.10
2022-09-05T16:27:55.007Z,8.73
2022-09-05T16:30:40.991Z,7.40
2022-09-05T16:33:30.533Z,7.60
2022-09-05T16:36:29.451Z,6.73
2022-09-05T16:39:20.944Z,7.00
2022-09-05T16:42:17.096Z,7.17
2022-09-05T16:45:27.589Z,7.30
2022-09-05T16:48:31.195Z,7.13
2022-09-05T16:51:41.991Z,6.93
2022-09-05T16:54:40.319Z,7.33
2022-09-05T16:57:36.080Z,7.27
2022-09-05T17:00:21.469Z,6.87
2022-09-05T17:03:45.492Z,6.70
2022-09-05T17:06:45.837Z,6.80
2022-09-05T17:09:37.171Z,6.87
2022-09-05T17:12:31.534Z,6.37
2022-09-05T17:15:52.010Z,6.47
2022-09-05T17:18:39.176Z,6.60
2022-09-05T17:24:24.497Z,6.17
2022-09-05T17:29:20.332Z,5.93
2022-09-05T17:29:32.752Z,5.50
2022-09-05T17:34:18.630Z,6.13
2022-09-05T17:37:29.099Z,5.90
2022-09-05T17:40:59.480Z,6.00
2022-09-05T17:43:58.077Z,5.90
2022-09-05T17:46:58.169Z,5.70
2022-09-05T17:49:46.070Z,6.00
2022-09-05T17:52:41.643Z,6.17
2022-09-05T17:55:47.855Z,5.90
2022-09-05T17:58:49.591Z,5.47
2022-09-05T18:01:36.738Z,6.40
2022-09-05T18:04:45.355Z,6.17
2022-09-05T18:07:35.482Z,5.93
2022-09-05T18:10:27.253Z,6.40
2022-09-05T18:13:31.822Z,6.13
2022-09-05T18:16:43.677Z,5.53
2022-09-05T18:19:43.995Z,5.78
2022-09-05T18:22:35.891Z,6.17
2022-09-05T18:25:33.718Z,6.13
2022-09-05T18:28:22.532Z,6.33
2022-09-05T18:31:41.285Z,6.40
2022-09-05T18:34:37.465Z,6.00
2022-09-05T18:37:38.217Z,6.30
2022-09-05T18:41:00.550Z,6.47
2022-09-05T18:44:13.699Z,5.83
2022-09-05T18:47:32.905Z,5.83
2022-09-05T18:50:27.588Z,5.83
2022-09-05T18:53:25.090Z,6.70
2022-09-05T18:56:21.056Z,6.33
2022-09-05T18:59:16.037Z,5.73
2022-09-05T19:02:08.532Z,6.23
2022-09-05T19:05:28.335Z,6.07
2022-09-05T19:08:38.580Z,6.13
2022-09-05T19:11:52.853Z,6.87
2022-09-05T19:14:47.395Z,6.00
2022-09-05T19:17:47.074Z,6.53
2022-09-05T19:21:11.777Z,6.70
2022-09-05T19:24:04.598Z,6.03
2022-09-05T19:27:09.523Z,6.10
2022-09-05T19:36:47.436Z,6.80
2022-09-05T19:37:07.382Z,6.30
2022-09-05T19:37:08.889Z,5.83
2022-09-05T19:43:01.296Z,6.87
2022-09-05T19:47:38.729Z,6.97
2022-09-05T19:47:51.474Z,6.17
2022-09-05T19:49:16.253Z,7.10
2022-09-05T19:52:16.432Z,7.30
2022-09-05T19:55:02.291Z,6.97
2022-09-05T19:58:18.587Z,7.47
2022-09-05T20:01:06.043Z,7.00
2022-09-05T20:03:54.105Z,7.28
2022-09-05T20:06:39.353Z,7.40
2022-09-05T20:09:26.178Z,7.00
2022-09-05T20:12:23.564Z,7.53
2022-09-05T20:15:27.891Z,7.20
2022-09-05T20:18:28.349Z,7.00
2022-09-05T20:21:20.699Z,6.57
2022-09-05T20:24:06.459Z,7.90
2022-09-05T20:26:52.176Z,8.13
2022-09-05T20:29:54.869Z,7.30
2022-09-05T20:32:52.362Z,7.70
2022-09-05T20:41:48.643Z,7.80
2022-09-05T20:43:20.493Z,7.60
2022-09-05T20:43:22.135Z,7.23
2022-09-05T20:47:41.986Z,7.10
2022-09-05T20:54:06.987Z,7.90
2022-09-05T20:54:15.603Z,8.40
2022-09-05T20:55:41.990Z,8.13
2022-09-05T20:58:31.561Z,8.40
2022-09-05T21:01:22.930Z,8.77
2022-09-05T21:04:08.732Z,8.27
2022-09-05T21:07:12.465Z,8.30
2022-09-05T21:10:00.218Z,8.07
2022-09-05T21:12:50.970Z,8.87
2022-09-05T21:15:52.954Z,8.47
2022-09-05T21:18:42.285Z,8.67
2022-09-05T21:21:30.278Z,8.67
2022-09-05T21:24:23.911Z,8.37
2022-09-05T21:30:44.841Z,8.23
2022-09-05T21:33:45.143Z,8.20
2022-09-05T21:36:30.993Z,8.07
2022-09-05T21:39:19.122Z,8.47
2022-09-05T21:42:58.284Z,8.87
2022-09-05T21:47:43.997Z,8.40
2022-09-05T21:48:15.815Z,9.07
2022-09-05T21:51:11.487Z,8.77
2022-09-05T21:59:13.468Z,8.67
2022-09-05T21:59:28.369Z,8.60
2022-09-05T22:00:34.214Z,8.87
2022-09-05T22:03:20.728Z,8.93
2022-09-05T22:06:11.731Z,9.10
2022-09-05T22:09:13.721Z,9.20
2022-09-05T22:12:00.108Z,8.98
2022-09-05T22:14:51.559Z,8.63
2022-09-05T22:17:39.544Z,8.90
2022-09-05T22:20:25.184Z,8.57
2022-09-05T22:23:11.120Z,9.00
2022-09-05T22:25:56.735Z,9.07
2022-09-05T22:28:49.028Z,8.57
2022-09-05T22:31:34.422Z,8.70
2022-09-05T22:34:19.619Z,9.50
2022-09-05T22:37:04.935Z,9.47
2022-09-05T22:39:50.421Z,8.37
2022-09-05T22:42:35.862Z,9.13
2022-09-05T22:45:21.315Z,8.80
2022-09-05T22:48:12.823Z,9.03
2022-09-05T22:50:58.092Z,10.00
2022-09-05T22:53:43.863Z,8.93
2022-09-05T22:56:35.184Z,9.40
2022-09-05T22:59:20.422Z,9.10
2022-09-05T23:02:05.792Z,9.07
2022-09-05T23:04:50.935Z,9.13
2022-09-05T23:07:36.550Z,9.97
2022-09-05T23:10:22.106Z,9.13
2022-09-05T23:13:09.923Z,9.20
2022-09-05T23:15:57.886Z,10.37
2022-09-05T23:18:43.309Z,9.43
2022-09-05T23:21:28.487Z,9.43
2022-09-05T23:24:13.914Z,9.37
2022-09-05T23:26:59.344Z,9.73
2022-09-05T23:29:44.918Z,8.90
2022-09-05T23:32:30.190Z,9.97
2022-09-05T23:35:16.311Z,9.20
2022-09-05T23:38:01.733Z,9.20
2022-09-05T23:40:46.948Z,9.37
2022-09-05T23:43:33.317Z,9.20
2022-09-05T23:46:18.680Z,8.53
2022-09-05T23:49:03.934Z,9.77
2022-09-05T23:51:49.122Z,9.20
2022-09-05T23:54:34.191Z,9.50
2022-09-05T23:57:23.676Z,9.57
